sensor_id;sensor_type;location;lat;lon;timestamp;temperature;humidity
21306;DHT22;10812;51.838;5.838;2023-03-02T00:00:07;1.30;99.90
21306;DHT22;10812;51.838;5.838;2023-03-02T00:02:42;1.30;99.90
21306;DHT22;10812;51.838;5.838;2023-03-02T00:05:11;1.30;99.90
21306;DHT22;10812;51.838;5.838;2023-03-02T00:07:41;1.30;99.90
21306;DHT22;10812;51.838;5.838;2023-03-02T00:10:10;1.20;99.90
21306;DHT22;10812;51.838;5.838;2023-03-02T00:12:38;1.20;99.90
21306;DHT22;10812;51.838;5.838;2023-03-02T00:15:08;1.20;99.90
21306;DHT22;10812;51.838;5.838;2023-03-02T00:17:36;1.20;99.90
21306;DHT22;10812;51.838;5.838;2023-03-02T00:20:05;1.20;99.90
21306;DHT22;10812;51.838;5.838;2023-03-02T00:22:36;1.10;99.90
21306;DHT22;10812;51.838;5.838;2023-03-02T00:25:07;1.10;99.90
21306;DHT22;10812;51.838;5.838;2023-03-02T00:27:36;1.10;99.90
21306;DHT22;10812;51.838;5.838;2023-03-02T00:30:05;1.10;99.90
21306;DHT22;10812;51.838;5.838;2023-03-02T00:32:33;1.10;99.90
21306;DHT22;10812;51.838;5.838;2023-03-02T00:35:02;1.10;99.90
21306;DHT22;10812;51.838;5.838;2023-03-02T00:37:30;1.10;99.90
21306;DHT22;10812;51.838;5.838;2023-03-02T00:39:58;1.10;99.90
21306;DHT22;10812;51.838;5.838;2023-03-02T00:42:27;1.10;99.90
21306;DHT22;10812;51.838;5.838;2023-03-02T00:44:56;1.00;99.90
21306;DHT22;10812;51.838;5.838;2023-03-02T00:47:27;1.00;99.90
21306;DHT22;10812;51.838;5.838;2023-03-02T00:49:55;1.00;99.90
21306;DHT22;10812;51.838;5.838;2023-03-02T00:52:24;0.90;99.90
21306;DHT22;10812;51.838;5.838;2023-03-02T00:54:52;0.90;99.90
21306;DHT22;10812;51.838;5.838;2023-03-02T00:57:20;0.90;99.90
21306;DHT22;10812;51.838;5.838;2023-03-02T00:59:49;0.80;99.90
21306;DHT22;10812;51.838;5.838;2023-03-02T01:02:17;0.80;99.90
21306;DHT22;10812;51.838;5.838;2023-03-02T01:04:47;0.80;99.90
21306;DHT22;10812;51.838;5.838;2023-03-02T01:07:16;0.80;99.90
21306;DHT22;10812;51.838;5.838;2023-03-02T01:09:46;0.80;99.90
21306;DHT22;10812;51.838;5.838;2023-03-02T01:12:15;0.70;99.90
21306;DHT22;10812;51.838;5.838;2023-03-02T01:14:45;0.80;99.90
21306;DHT22;10812;51.838;5.838;2023-03-02T01:17:15;0.80;99.90
21306;DHT22;10812;51.838;5.838;2023-03-02T01:19:43;0.80;99.90
21306;DHT22;10812;51.838;5.838;2023-03-02T01:22:11;0.80;99.90
21306;DHT22;10812;51.838;5.838;2023-03-02T01:24:40;0.80;99.90
21306;DHT22;10812;51.838;5.838;2023-03-02T01:27:08;0.70;99.90
21306;DHT22;10812;51.838;5.838;2023-03-02T01:29:36;0.80;99.90
21306;DHT22;10812;51.838;5.838;2023-03-02T01:32:05;0.80;99.90
21306;DHT22;10812;51.838;5.838;2023-03-02T01:34:34;0.80;99.90
21306;DHT22;10812;51.838;5.838;2023-03-02T01:37:02;0.80;99.90
21306;DHT22;10812;51.838;5.838;2023-03-02T01:39:31;0.70;99.90
21306;DHT22;10812;51.838;5.838;2023-03-02T01:41:59;0.70;99.90
21306;DHT22;10812;51.838;5.838;2023-03-02T01:44:36;0.80;99.90
21306;DHT22;10812;51.838;5.838;2023-03-02T01:47:10;0.80;99.90
21306;DHT22;10812;51.838;5.838;2023-03-02T01:49:45;0.80;99.90
21306;DHT22;10812;51.838;5.838;2023-03-02T01:52:15;0.80;99.90
21306;DHT22;10812;51.838;5.838;2023-03-02T01:54:46;0.70;99.90
21306;DHT22;10812;51.838;5.838;2023-03-02T01:57:19;0.70;99.90
21306;DHT22;10812;51.838;5.838;2023-03-02T01:59:53;0.70;99.90
21306;DHT22;10812;51.838;5.838;2023-03-02T02:02:22;0.70;99.90
21306;DHT22;10812;51.838;5.838;2023-03-02T02:04:53;0.70;99.90
21306;DHT22;10812;51.838;5.838;2023-03-02T02:07:22;0.70;99.90
21306;DHT22;10812;51.838;5.838;2023-03-02T02:09:51;0.70;99.90
21306;DHT22;10812;51.838;5.838;2023-03-02T02:12:21;0.70;99.90
21306;DHT22;10812;51.838;5.838;2023-03-02T02:14:50;0.70;99.90
21306;DHT22;10812;51.838;5.838;2023-03-02T02:17:19;0.60;99.90
21306;DHT22;10812;51.838;5.838;2023-03-02T02:19:58;0.60;99.90
21306;DHT22;10812;51.838;5.838;2023-03-02T02:22:39;0.50;99.90
21306;DHT22;10812;51.838;5.838;2023-03-02T02:25:19;0.60;99.90
21306;DHT22;10812;51.838;5.838;2023-03-02T02:27:50;0.50;99.90
21306;DHT22;10812;51.838;5.838;2023-03-02T02:30:20;0.50;99.90
21306;DHT22;10812;51.838;5.838;2023-03-02T02:32:49;0.40;99.90
21306;DHT22;10812;51.838;5.838;2023-03-02T02:35:21;0.40;99.90
21306;DHT22;10812;51.838;5.838;2023-03-02T02:37:55;0.50;99.90
21306;DHT22;10812;51.838;5.838;2023-03-02T02:40:40;0.40;99.90
21306;DHT22;10812;51.838;5.838;2023-03-02T02:43:11;0.40;99.90
21306;DHT22;10812;51.838;5.838;2023-03-02T02:45:40;0.40;99.90
21306;DHT22;10812;51.838;5.838;2023-03-02T02:48:10;0.40;99.90
21306;DHT22;10812;51.838;5.838;2023-03-02T02:50:42;0.40;99.90
21306;DHT22;10812;51.838;5.838;2023-03-02T02:53:13;0.30;99.90
21306;DHT22;10812;51.838;5.838;2023-03-02T02:55:43;0.30;99.90
21306;DHT22;10812;51.838;5.838;2023-03-02T02:58:23;0.30;99.90
21306;DHT22;10812;51.838;5.838;2023-03-02T03:06:17;0.30;99.90
21306;DHT22;10812;51.838;5.838;2023-03-02T03:08:51;0.30;99.90
21306;DHT22;10812;51.838;5.838;2023-03-02T03:11:21;0.30;99.90
21306;DHT22;10812;51.838;5.838;2023-03-02T03:13:55;0.30;99.90
21306;DHT22;10812;51.838;5.838;2023-03-02T03:16:27;0.30;99.90
21306;DHT22;10812;51.838;5.838;2023-03-02T03:18:58;0.30;99.90
21306;DHT22;10812;51.838;5.838;2023-03-02T03:21:28;0.30;99.90
21306;DHT22;10812;51.838;5.838;2023-03-02T03:23:56;0.30;99.90
21306;DHT22;10812;51.838;5.838;2023-03-02T03:26:24;0.30;99.90
21306;DHT22;10812;51.838;5.838;2023-03-02T03:28:54;0.30;99.90
21306;DHT22;10812;51.838;5.838;2023-03-02T03:31:25;0.30;99.90
21306;DHT22;10812;51.838;5.838;2023-03-02T03:33:54;0.30;99.90
21306;DHT22;10812;51.838;5.838;2023-03-02T03:36:27;0.30;99.90
21306;DHT22;10812;51.838;5.838;2023-03-02T03:38:55;0.20;99.90
21306;DHT22;10812;51.838;5.838;2023-03-02T03:41:24;0.20;99.90
21306;DHT22;10812;51.838;5.838;2023-03-02T03:43:54;0.20;99.90
21306;DHT22;10812;51.838;5.838;2023-03-02T03:46:22;0.20;99.90
21306;DHT22;10812;51.838;5.838;2023-03-02T03:48:51;0.20;99.90
21306;DHT22;10812;51.838;5.838;2023-03-02T03:51:19;0.20;99.90
21306;DHT22;10812;51.838;5.838;2023-03-02T03:53:47;0.20;99.90
21306;DHT22;10812;51.838;5.838;2023-03-02T03:56:25;0.20;99.90
21306;DHT22;10812;51.838;5.838;2023-03-02T03:58:55;0.20;99.90
21306;DHT22;10812;51.838;5.838;2023-03-02T04:01:33;0.20;99.90
21306;DHT22;10812;51.838;5.838;2023-03-02T04:04:02;0.20;99.90
21306;DHT22;10812;51.838;5.838;2023-03-02T04:06:31;0.10;99.90
21306;DHT22;10812;51.838;5.838;2023-03-02T04:08:59;0.10;99.90
21306;DHT22;10812;51.838;5.838;2023-03-02T04:11:30;0.10;99.90
21306;DHT22;10812;51.838;5.838;2023-03-02T04:14:00;0.00;99.90
21306;DHT22;10812;51.838;5.838;2023-03-02T04:16:29;0.10;99.90
21306;DHT22;10812;51.838;5.838;2023-03-02T04:18:58;0.00;99.90
21306;DHT22;10812;51.838;5.838;2023-03-02T04:21:27;0.00;99.90
21306;DHT22;10812;51.838;5.838;2023-03-02T04:23:55;-0.10;99.90
21306;DHT22;10812;51.838;5.838;2023-03-02T04:26:23;-0.10;99.90
21306;DHT22;10812;51.838;5.838;2023-03-02T04:28:52;-0.10;99.90
21306;DHT22;10812;51.838;5.838;2023-03-02T04:31:22;-0.10;99.90
21306;DHT22;10812;51.838;5.838;2023-03-02T04:33:50;-0.20;99.90
21306;DHT22;10812;51.838;5.838;2023-03-02T04:36:18;-0.20;99.90
21306;DHT22;10812;51.838;5.838;2023-03-02T04:38:46;-0.20;99.90
21306;DHT22;10812;51.838;5.838;2023-03-02T04:41:15;-0.20;99.90
21306;DHT22;10812;51.838;5.838;2023-03-02T04:43:43;-0.30;99.90
21306;DHT22;10812;51.838;5.838;2023-03-02T04:46:14;-0.30;99.90
21306;DHT22;10812;51.838;5.838;2023-03-02T04:48:43;-0.30;99.90
21306;DHT22;10812;51.838;5.838;2023-03-02T04:51:16;-0.40;99.90
21306;DHT22;10812;51.838;5.838;2023-03-02T04:53:50;-0.40;99.90
21306;DHT22;10812;51.838;5.838;2023-03-02T04:56:18;-0.30;99.90
21306;DHT22;10812;51.838;5.838;2023-03-02T04:58:47;-0.40;99.90
21306;DHT22;10812;51.838;5.838;2023-03-02T05:01:16;-0.40;99.90
21306;DHT22;10812;51.838;5.838;2023-03-02T05:03:46;-0.40;99.90
21306;DHT22;10812;51.838;5.838;2023-03-02T05:06:14;-0.40;99.90
21306;DHT22;10812;51.838;5.838;2023-03-02T05:08:43;-0.40;99.90
21306;DHT22;10812;51.838;5.838;2023-03-02T05:11:13;-0.40;99.90
21306;DHT22;10812;51.838;5.838;2023-03-02T05:13:48;-0.50;99.90
21306;DHT22;10812;51.838;5.838;2023-03-02T05:16:16;-0.50;99.90
21306;DHT22;10812;51.838;5.838;2023-03-02T05:18:47;-0.50;99.90
21306;DHT22;10812;51.838;5.838;2023-03-02T05:21:16;-0.50;99.90
21306;DHT22;10812;51.838;5.838;2023-03-02T05:23:45;-0.50;99.90
21306;DHT22;10812;51.838;5.838;2023-03-02T05:26:13;-0.50;99.90
21306;DHT22;10812;51.838;5.838;2023-03-02T05:28:42;-0.50;99.90
21306;DHT22;10812;51.838;5.838;2023-03-02T05:31:13;-0.50;99.90
21306;DHT22;10812;51.838;5.838;2023-03-02T05:33:46;-0.50;99.90
21306;DHT22;10812;51.838;5.838;2023-03-02T05:36:14;-0.50;99.90
21306;DHT22;10812;51.838;5.838;2023-03-02T05:38:46;-0.50;99.90
21306;DHT22;10812;51.838;5.838;2023-03-02T05:41:14;-0.50;99.90
21306;DHT22;10812;51.838;5.838;2023-03-02T05:43:42;-0.50;99.90
21306;DHT22;10812;51.838;5.838;2023-03-02T05:46:10;-0.50;99.90
21306;DHT22;10812;51.838;5.838;2023-03-02T05:48:38;-0.50;99.90
21306;DHT22;10812;51.838;5.838;2023-03-02T05:51:09;-0.60;99.90
21306;DHT22;10812;51.838;5.838;2023-03-02T05:53:37;-0.60;99.90
21306;DHT22;10812;51.838;5.838;2023-03-02T05:56:06;-0.60;99.90
21306;DHT22;10812;51.838;5.838;2023-03-02T05:58:34;-0.60;99.90
21306;DHT22;10812;51.838;5.838;2023-03-02T06:01:07;-0.60;99.90
21306;DHT22;10812;51.838;5.838;2023-03-02T06:03:35;-0.60;99.90
21306;DHT22;10812;51.838;5.838;2023-03-02T06:06:04;-0.60;99.90
21306;DHT22;10812;51.838;5.838;2023-03-02T06:08:34;-0.50;99.90
21306;DHT22;10812;51.838;5.838;2023-03-02T06:11:07;-0.60;99.90
21306;DHT22;10812;51.838;5.838;2023-03-02T06:13:35;-0.60;99.90
21306;DHT22;10812;51.838;5.838;2023-03-02T06:16:04;-0.60;99.90
21306;DHT22;10812;51.838;5.838;2023-03-02T06:18:32;-0.60;99.90
21306;DHT22;10812;51.838;5.838;2023-03-02T06:21:01;-0.60;99.90
21306;DHT22;10812;51.838;5.838;2023-03-02T06:23:29;-0.60;99.90
21306;DHT22;10812;51.838;5.838;2023-03-02T06:25:59;-0.70;99.90
21306;DHT22;10812;51.838;5.838;2023-03-02T06:28:27;-0.70;99.90
21306;DHT22;10812;51.838;5.838;2023-03-02T06:30:55;-0.70;99.90
21306;DHT22;10812;51.838;5.838;2023-03-02T06:33:26;-0.70;99.90
21306;DHT22;10812;51.838;5.838;2023-03-02T06:35:54;-0.80;99.90
21306;DHT22;10812;51.838;5.838;2023-03-02T06:38:22;-0.70;99.90
21306;DHT22;10812;51.838;5.838;2023-03-02T06:40:50;-0.70;99.90
21306;DHT22;10812;51.838;5.838;2023-03-02T06:43:20;-0.70;99.90
21306;DHT22;10812;51.838;5.838;2023-03-02T06:45:48;-0.70;99.90
21306;DHT22;10812;51.838;5.838;2023-03-02T06:48:17;-0.60;99.90
21306;DHT22;10812;51.838;5.838;2023-03-02T06:50:45;-0.60;99.90
21306;DHT22;10812;51.838;5.838;2023-03-02T06:53:13;-0.50;99.90
21306;DHT22;10812;51.838;5.838;2023-03-02T06:55:46;-0.50;99.90
21306;DHT22;10812;51.838;5.838;2023-03-02T06:58:14;-0.50;99.90
21306;DHT22;10812;51.838;5.838;2023-03-02T07:00:43;-0.50;99.90
21306;DHT22;10812;51.838;5.838;2023-03-02T07:03:12;-0.40;99.90
21306;DHT22;10812;51.838;5.838;2023-03-02T07:05:40;-0.40;99.90
21306;DHT22;10812;51.838;5.838;2023-03-02T07:08:11;-0.40;99.90
21306;DHT22;10812;51.838;5.838;2023-03-02T07:10:39;-0.40;99.90
21306;DHT22;10812;51.838;5.838;2023-03-02T07:13:08;-0.30;99.90
21306;DHT22;10812;51.838;5.838;2023-03-02T07:15:38;-0.20;99.90
21306;DHT22;10812;51.838;5.838;2023-03-02T07:18:07;0.10;99.90
21306;DHT22;10812;51.838;5.838;2023-03-02T07:20:35;0.80;99.90
21306;DHT22;10812;51.838;5.838;2023-03-02T07:23:04;1.40;99.90
21306;DHT22;10812;51.838;5.838;2023-03-02T07:25:32;1.80;99.90
21306;DHT22;10812;51.838;5.838;2023-03-02T07:28:01;2.50;99.90
21306;DHT22;10812;51.838;5.838;2023-03-02T07:30:29;2.90;99.90
21306;DHT22;10812;51.838;5.838;2023-03-02T07:32:57;2.90;99.90
21306;DHT22;10812;51.838;5.838;2023-03-02T07:35:27;3.20;99.90
21306;DHT22;10812;51.838;5.838;2023-03-02T07:37:55;3.20;99.90
21306;DHT22;10812;51.838;5.838;2023-03-02T07:40:23;3.30;99.90
21306;DHT22;10812;51.838;5.838;2023-03-02T07:42:51;3.50;99.90
21306;DHT22;10812;51.838;5.838;2023-03-02T07:45:19;3.50;99.90
21306;DHT22;10812;51.838;5.838;2023-03-02T07:47:50;3.50;99.90
21306;DHT22;10812;51.838;5.838;2023-03-02T07:50:18;3.90;99.90
21306;DHT22;10812;51.838;5.838;2023-03-02T07:52:48;4.60;99.90
21306;DHT22;10812;51.838;5.838;2023-03-02T07:55:16;5.00;99.90
21306;DHT22;10812;51.838;5.838;2023-03-02T07:57:44;4.80;99.90
21306;DHT22;10812;51.838;5.838;2023-03-02T08:00:13;4.90;99.90
21306;DHT22;10812;51.838;5.838;2023-03-02T08:02:42;4.80;99.90
21306;DHT22;10812;51.838;5.838;2023-03-02T08:05:11;4.80;99.90
21306;DHT22;10812;51.838;5.838;2023-03-02T08:07:39;5.10;99.90
21306;DHT22;10812;51.838;5.838;2023-03-02T08:10:10;5.50;99.90
21306;DHT22;10812;51.838;5.838;2023-03-02T08:12:39;5.80;99.90
21306;DHT22;10812;51.838;5.838;2023-03-02T08:15:09;6.00;99.90
21306;DHT22;10812;51.838;5.838;2023-03-02T08:17:38;5.60;99.90
21306;DHT22;10812;51.838;5.838;2023-03-02T08:20:06;5.30;99.90
21306;DHT22;10812;51.838;5.838;2023-03-02T08:22:35;5.90;99.90
21306;DHT22;10812;51.838;5.838;2023-03-02T08:25:04;6.10;99.90
21306;DHT22;10812;51.838;5.838;2023-03-02T08:27:34;5.90;99.90
21306;DHT22;10812;51.838;5.838;2023-03-02T08:30:03;5.30;99.90
21306;DHT22;10812;51.838;5.838;2023-03-02T08:32:31;5.00;99.90
21306;DHT22;10812;51.838;5.838;2023-03-02T08:35:00;5.30;99.90
21306;DHT22;10812;51.838;5.838;2023-03-02T08:37:28;5.10;99.90
21306;DHT22;10812;51.838;5.838;2023-03-02T08:39:56;5.10;99.90
21306;DHT22;10812;51.838;5.838;2023-03-02T08:42:24;5.10;99.90
21306;DHT22;10812;51.838;5.838;2023-03-02T08:44:54;5.50;99.90
21306;DHT22;10812;51.838;5.838;2023-03-02T08:47:22;5.60;99.90
21306;DHT22;10812;51.838;5.838;2023-03-02T08:49:50;5.60;99.90
21306;DHT22;10812;51.838;5.838;2023-03-02T08:52:18;6.20;99.90
21306;DHT22;10812;51.838;5.838;2023-03-02T08:54:46;6.40;99.90
21306;DHT22;10812;51.838;5.838;2023-03-02T08:57:14;6.50;99.90
21306;DHT22;10812;51.838;5.838;2023-03-02T08:59:43;6.70;99.90
21306;DHT22;10812;51.838;5.838;2023-03-02T09:02:12;6.80;99.90
21306;DHT22;10812;51.838;5.838;2023-03-02T09:04:40;6.50;99.90
21306;DHT22;10812;51.838;5.838;2023-03-02T09:07:09;6.40;99.90
21306;DHT22;10812;51.838;5.838;2023-03-02T09:09:37;6.50;99.90
21306;DHT22;10812;51.838;5.838;2023-03-02T09:12:05;5.50;99.90
21306;DHT22;10812;51.838;5.838;2023-03-02T09:14:33;5.80;99.90
21306;DHT22;10812;51.838;5.838;2023-03-02T09:17:02;6.80;99.90
21306;DHT22;10812;51.838;5.838;2023-03-02T09:19:32;6.20;99.90
21306;DHT22;10812;51.838;5.838;2023-03-02T09:22:10;5.80;99.90
21306;DHT22;10812;51.838;5.838;2023-03-02T09:24:38;5.80;99.90
21306;DHT22;10812;51.838;5.838;2023-03-02T09:27:06;5.90;99.90
21306;DHT22;10812;51.838;5.838;2023-03-02T09:29:34;6.40;99.90
21306;DHT22;10812;51.838;5.838;2023-03-02T09:32:03;6.70;99.90
21306;DHT22;10812;51.838;5.838;2023-03-02T09:34:32;7.20;99.90
21306;DHT22;10812;51.838;5.838;2023-03-02T09:37:01;7.20;99.90
21306;DHT22;10812;51.838;5.838;2023-03-02T09:39:29;7.80;99.90
21306;DHT22;10812;51.838;5.838;2023-03-02T09:42:18;7.80;99.90
21306;DHT22;10812;51.838;5.838;2023-03-02T09:48:04;6.90;99.90
21306;DHT22;10812;51.838;5.838;2023-03-02T09:50:40;7.40;99.90
21306;DHT22;10812;51.838;5.838;2023-03-02T09:53:23;7.50;99.90
21306;DHT22;10812;51.838;5.838;2023-03-02T09:55:56;6.90;99.90
21306;DHT22;10812;51.838;5.838;2023-03-02T09:58:29;7.20;99.90
21306;DHT22;10812;51.838;5.838;2023-03-02T10:01:02;6.80;99.90
21306;DHT22;10812;51.838;5.838;2023-03-02T10:03:35;6.90;99.90
21306;DHT22;10812;51.838;5.838;2023-03-02T10:06:07;6.50;99.90
21306;DHT22;10812;51.838;5.838;2023-03-02T10:08:36;6.80;99.90
21306;DHT22;10812;51.838;5.838;2023-03-02T10:11:13;6.50;99.90
21306;DHT22;10812;51.838;5.838;2023-03-02T10:13:46;5.70;99.90
21306;DHT22;10812;51.838;5.838;2023-03-02T10:16:24;5.10;99.90
21306;DHT22;10812;51.838;5.838;2023-03-02T10:19:02;4.70;99.90
21306;DHT22;10812;51.838;5.838;2023-03-02T10:21:37;4.50;99.90
21306;DHT22;10812;51.838;5.838;2023-03-02T10:24:15;4.40;99.90
21306;DHT22;10812;51.838;5.838;2023-03-02T10:26:50;4.60;99.90
21306;DHT22;10812;51.838;5.838;2023-03-02T10:29:35;4.70;99.90
21306;DHT22;10812;51.838;5.838;2023-03-02T10:32:15;4.70;99.90
21306;DHT22;10812;51.838;5.838;2023-03-02T10:34:46;4.70;99.90
21306;DHT22;10812;51.838;5.838;2023-03-02T10:37:19;4.70;99.90
21306;DHT22;10812;51.838;5.838;2023-03-02T10:39:50;4.70;99.90
21306;DHT22;10812;51.838;5.838;2023-03-02T10:42:21;4.80;99.90
21306;DHT22;10812;51.838;5.838;2023-03-02T10:44:54;4.90;99.90
21306;DHT22;10812;51.838;5.838;2023-03-02T10:47:25;4.90;99.90
21306;DHT22;10812;51.838;5.838;2023-03-02T10:49:54;4.90;99.90
21306;DHT22;10812;51.838;5.838;2023-03-02T10:52:26;5.00;99.90
21306;DHT22;10812;51.838;5.838;2023-03-02T10:55:02;5.00;99.90
21306;DHT22;10812;51.838;5.838;2023-03-02T10:57:35;5.00;99.90
21306;DHT22;10812;51.838;5.838;2023-03-02T11:00:14;5.20;99.90
21306;DHT22;10812;51.838;5.838;2023-03-02T11:02:51;5.20;99.90
21306;DHT22;10812;51.838;5.838;2023-03-02T11:05:26;5.30;99.90
21306;DHT22;10812;51.838;5.838;2023-03-02T11:07:57;5.50;99.90
21306;DHT22;10812;51.838;5.838;2023-03-02T11:10:27;5.60;99.90
21306;DHT22;10812;51.838;5.838;2023-03-02T11:12:58;5.50;99.90
21306;DHT22;10812;51.838;5.838;2023-03-02T11:15:33;5.60;99.90
21306;DHT22;10812;51.838;5.838;2023-03-02T11:18:06;5.70;99.90
21306;DHT22;10812;51.838;5.838;2023-03-02T11:20:37;5.70;99.90
21306;DHT22;10812;51.838;5.838;2023-03-02T11:23:15;5.70;99.90
21306;DHT22;10812;51.838;5.838;2023-03-02T11:25:49;5.80;99.90
21306;DHT22;10812;51.838;5.838;2023-03-02T11:28:28;5.90;99.90
21306;DHT22;10812;51.838;5.838;2023-03-02T11:30:59;5.80;99.90
21306;DHT22;10812;51.838;5.838;2023-03-02T11:33:34;5.90;99.90
21306;DHT22;10812;51.838;5.838;2023-03-02T11:36:08;6.00;99.90
21306;DHT22;10812;51.838;5.838;2023-03-02T11:38:46;6.00;99.90
21306;DHT22;10812;51.838;5.838;2023-03-02T11:41:24;6.10;99.90
21306;DHT22;10812;51.838;5.838;2023-03-02T11:43:58;6.20;99.90
21306;DHT22;10812;51.838;5.838;2023-03-02T11:46:29;6.20;99.90
21306;DHT22;10812;51.838;5.838;2023-03-02T11:49:00;6.20;99.90
21306;DHT22;10812;51.838;5.838;2023-03-02T11:51:34;6.30;99.90
21306;DHT22;10812;51.838;5.838;2023-03-02T11:54:14;6.50;99.90
21306;DHT22;10812;51.838;5.838;2023-03-02T11:56:45;6.60;99.90
21306;DHT22;10812;51.838;5.838;2023-03-02T11:59:17;6.70;99.90
21306;DHT22;10812;51.838;5.838;2023-03-02T12:01:50;6.70;99.90
21306;DHT22;10812;51.838;5.838;2023-03-02T12:04:27;6.70;99.90
21306;DHT22;10812;51.838;5.838;2023-03-02T12:06:59;6.80;99.90
21306;DHT22;10812;51.838;5.838;2023-03-02T12:09:31;6.80;99.90
21306;DHT22;10812;51.838;5.838;2023-03-02T12:15:28;7.20;99.90
21306;DHT22;10812;51.838;5.838;2023-03-02T12:18:00;7.10;99.90
21306;DHT22;10812;51.838;5.838;2023-03-02T12:20:29;7.10;99.90
21306;DHT22;10812;51.838;5.838;2023-03-02T12:23:08;7.20;99.90
21306;DHT22;10812;51.838;5.838;2023-03-02T12:25:41;7.20;99.90
21306;DHT22;10812;51.838;5.838;2023-03-02T12:28:26;7.30;99.90
21306;DHT22;10812;51.838;5.838;2023-03-02T12:31:00;7.30;99.90
21306;DHT22;10812;51.838;5.838;2023-03-02T12:33:28;7.30;99.90
21306;DHT22;10812;51.838;5.838;2023-03-02T12:36:11;7.40;99.90
21306;DHT22;10812;51.838;5.838;2023-03-02T12:38:43;7.50;99.90
21306;DHT22;10812;51.838;5.838;2023-03-02T12:41:21;7.70;99.90
21306;DHT22;10812;51.838;5.838;2023-03-02T12:44:05;7.70;99.90
21306;DHT22;10812;51.838;5.838;2023-03-02T12:46:36;7.80;99.90
21306;DHT22;10812;51.838;5.838;2023-03-02T12:49:41;7.80;99.90
21306;DHT22;10812;51.838;5.838;2023-03-02T12:52:25;8.00;99.90
21306;DHT22;10812;51.838;5.838;2023-03-02T12:55:03;7.90;99.90
21306;DHT22;10812;51.838;5.838;2023-03-02T12:57:36;7.90;99.90
21306;DHT22;10812;51.838;5.838;2023-03-02T13:00:13;8.00;99.90
21306;DHT22;10812;51.838;5.838;2023-03-02T13:02:45;7.90;99.90
21306;DHT22;10812;51.838;5.838;2023-03-02T13:05:17;7.80;99.90
21306;DHT22;10812;51.838;5.838;2023-03-02T13:07:54;8.00;99.90
21306;DHT22;10812;51.838;5.838;2023-03-02T13:10:27;8.10;99.90
21306;DHT22;10812;51.838;5.838;2023-03-02T13:12:58;8.10;99.90
21306;DHT22;10812;51.838;5.838;2023-03-02T13:15:27;8.10;99.90
21306;DHT22;10812;51.838;5.838;2023-03-02T13:17:57;8.10;99.90
21306;DHT22;10812;51.838;5.838;2023-03-02T13:20:27;8.10;99.90
21306;DHT22;10812;51.838;5.838;2023-03-02T13:22:56;8.10;99.90
21306;DHT22;10812;51.838;5.838;2023-03-02T13:25:26;8.10;99.90
21306;DHT22;10812;51.838;5.838;2023-03-02T13:27:56;8.10;99.90
21306;DHT22;10812;51.838;5.838;2023-03-02T13:30:35;8.10;99.90
21306;DHT22;10812;51.838;5.838;2023-03-02T13:33:19;8.30;99.90
21306;DHT22;10812;51.838;5.838;2023-03-02T13:35:48;8.30;99.90
21306;DHT22;10812;51.838;5.838;2023-03-02T13:38:17;8.20;99.90
21306;DHT22;10812;51.838;5.838;2023-03-02T13:40:47;8.20;99.90
21306;DHT22;10812;51.838;5.838;2023-03-02T13:43:35;8.20;99.90
21306;DHT22;10812;51.838;5.838;2023-03-02T13:48:52;8.30;99.90
21306;DHT22;10812;51.838;5.838;2023-03-02T13:51:38;8.20;99.90
21306;DHT22;10812;51.838;5.838;2023-03-02T13:54:15;8.20;99.90
21306;DHT22;10812;51.838;5.838;2023-03-02T13:56:45;8.30;99.90
21306;DHT22;10812;51.838;5.838;2023-03-02T13:59:15;8.20;99.90
21306;DHT22;10812;51.838;5.838;2023-03-02T14:01:45;8.20;99.90
21306;DHT22;10812;51.838;5.838;2023-03-02T14:04:14;8.30;99.90
21306;DHT22;10812;51.838;5.838;2023-03-02T14:06:43;8.20;99.90
21306;DHT22;10812;51.838;5.838;2023-03-02T14:09:12;8.30;99.90
21306;DHT22;10812;51.838;5.838;2023-03-02T14:11:44;8.20;99.90
21306;DHT22;10812;51.838;5.838;2023-03-02T14:14:15;8.30;99.90
21306;DHT22;10812;51.838;5.838;2023-03-02T14:16:44;8.30;99.90
21306;DHT22;10812;51.838;5.838;2023-03-02T14:19:13;8.30;99.90
21306;DHT22;10812;51.838;5.838;2023-03-02T14:21:44;8.30;99.90
21306;DHT22;10812;51.838;5.838;2023-03-02T14:24:13;8.30;99.90
21306;DHT22;10812;51.838;5.838;2023-03-02T14:26:42;8.40;99.90
21306;DHT22;10812;51.838;5.838;2023-03-02T14:29:20;8.40;99.90
21306;DHT22;10812;51.838;5.838;2023-03-02T14:31:50;8.40;99.90
21306;DHT22;10812;51.838;5.838;2023-03-02T14:34:19;8.50;99.90
21306;DHT22;10812;51.838;5.838;2023-03-02T14:36:48;8.60;99.90
21306;DHT22;10812;51.838;5.838;2023-03-02T14:39:22;8.60;99.90
21306;DHT22;10812;51.838;5.838;2023-03-02T14:41:52;8.60;99.90
21306;DHT22;10812;51.838;5.838;2023-03-02T14:44:22;8.60;99.90
21306;DHT22;10812;51.838;5.838;2023-03-02T14:46:51;8.60;99.90
21306;DHT22;10812;51.838;5.838;2023-03-02T14:49:20;8.60;99.90
21306;DHT22;10812;51.838;5.838;2023-03-02T14:51:57;8.70;99.90
21306;DHT22;10812;51.838;5.838;2023-03-02T14:54:32;8.60;99.90
21306;DHT22;10812;51.838;5.838;2023-03-02T14:57:02;8.70;99.90
21306;DHT22;10812;51.838;5.838;2023-03-02T14:59:33;8.60;99.90
21306;DHT22;10812;51.838;5.838;2023-03-02T15:02:03;8.60;99.90
21306;DHT22;10812;51.838;5.838;2023-03-02T15:04:49;8.70;99.90
21306;DHT22;10812;51.838;5.838;2023-03-02T15:07:24;8.70;99.90
21306;DHT22;10812;51.838;5.838;2023-03-02T15:09:53;8.70;99.90
21306;DHT22;10812;51.838;5.838;2023-03-02T15:12:21;8.70;99.90
21306;DHT22;10812;51.838;5.838;2023-03-02T15:14:49;8.70;99.90
21306;DHT22;10812;51.838;5.838;2023-03-02T15:17:19;8.60;99.90
21306;DHT22;10812;51.838;5.838;2023-03-02T15:19:47;8.60;99.90
21306;DHT22;10812;51.838;5.838;2023-03-02T15:22:15;8.50;99.90
21306;DHT22;10812;51.838;5.838;2023-03-02T15:24:43;8.60;99.90
21306;DHT22;10812;51.838;5.838;2023-03-02T15:27:11;8.60;99.90
21306;DHT22;10812;51.838;5.838;2023-03-02T15:29:42;8.60;99.90
21306;DHT22;10812;51.838;5.838;2023-03-02T15:32:12;8.50;99.90
21306;DHT22;10812;51.838;5.838;2023-03-02T15:34:42;8.50;99.90
21306;DHT22;10812;51.838;5.838;2023-03-02T15:37:10;8.50;99.90
21306;DHT22;10812;51.838;5.838;2023-03-02T15:39:39;8.50;99.90
21306;DHT22;10812;51.838;5.838;2023-03-02T15:42:07;8.40;99.90
21306;DHT22;10812;51.838;5.838;2023-03-02T15:44:38;8.40;99.90
21306;DHT22;10812;51.838;5.838;2023-03-02T15:47:06;8.40;99.90
21306;DHT22;10812;51.838;5.838;2023-03-02T15:49:34;8.30;99.90
21306;DHT22;10812;51.838;5.838;2023-03-02T15:52:04;8.30;99.90
21306;DHT22;10812;51.838;5.838;2023-03-02T15:54:32;8.30;99.90
21306;DHT22;10812;51.838;5.838;2023-03-02T15:57:00;8.20;99.90
21306;DHT22;10812;51.838;5.838;2023-03-02T15:59:30;8.20;99.90
21306;DHT22;10812;51.838;5.838;2023-03-02T16:01:58;8.20;99.90
21306;DHT22;10812;51.838;5.838;2023-03-02T16:04:29;8.20;99.90
21306;DHT22;10812;51.838;5.838;2023-03-02T16:06:58;8.10;99.90
21306;DHT22;10812;51.838;5.838;2023-03-02T16:09:28;8.10;99.90
21306;DHT22;10812;51.838;5.838;2023-03-02T16:11:56;8.00;99.90
21306;DHT22;10812;51.838;5.838;2023-03-02T16:14:25;8.00;99.90
21306;DHT22;10812;51.838;5.838;2023-03-02T16:16:53;8.00;99.90
21306;DHT22;10812;51.838;5.838;2023-03-02T16:19:21;7.90;99.90